Time;durP1;ratioP1;P1;durP2;ratioP2;P2;SDS_P1;SDS_P2;PMS_P1;PMS_P2;Temp;Humidity;BMP_temperature;BMP_pressure;BME280_temperature;BME280_humidity;BME280_pressure;Samples;Min_cycle;Max_cycle;Signal;HPM_P1;HPM_P2
2023/06/29 00:01:11;;;;;;;;;;;;;;;-144.99;89.15;52209.63;5025513;28;20155;-71
2023/06/29 00:03:38;;;;;;;;;;;;;;;-144.99;91.42;52199.44;5061977;22;20036;-69
2023/06/29 00:06:05;;;;;;;;;;;;;;;-144.99;92.50;52264.66;5063442;28;19944;-69
2023/06/29 00:08:35;;;;;;;;;;;;;;;-144.99;92.86;52223.88;5065746;28;19948;-68
2023/06/29 00:11:04;;;;;;;;;;;;;;;-144.99;93.53;52232.03;5053921;28;20038;-69
2023/06/29 00:13:32;;;;;;;;;;;;;;;-144.99;93.87;52250.38;5049166;28;19967;-68
2023/06/29 00:15:59;;;;;;;;;;;;;;;-144.99;93.83;52278.91;5048885;28;19940;-68
2023/06/29 00:18:28;;;;;;;;;;;;;;;-144.99;94.22;52227.97;5041173;28;20013;-68
2023/06/29 00:20:56;;;;;;;;;;;;;;;-144.99;94.51;52240.19;5047721;28;20388;-68
2023/06/29 00:23:24;;;;;;;;;;;;;;;-144.99;93.76;52227.97;5048552;28;19939;-69
2023/06/29 00:25:52;;;;;;;;;;;;;;;-144.99;93.26;52219.81;5049051;28;19945;-67
2023/06/29 00:28:19;;;;;;;;;;;;;;;-144.99;93.43;52207.59;5048885;28;19940;-68
2023/06/29 00:30:47;;;;;;;;;;;;;;;-144.99;93.36;52217.78;5049013;28;19958;-68
2023/06/29 00:33:13;;;;;;;;;;;;;;;-144.99;94.83;52227.97;5049251;28;19982;-66
2023/06/29 00:35:40;;;;;;;;;;;;;;;-144.99;93.62;52230.00;5047029;28;19945;-67
2023/06/29 00:38:06;;;;;;;;;;;;;;;-144.99;93.54;52232.03;5043668;28;20393;-67
2023/06/29 00:40:33;;;;;;;;;;;;;;;-144.99;93.29;52185.16;5047928;28;19965;-68
2023/06/29 00:43:00;;;;;;;;;;;;;;;-144.99;93.07;52191.28;5045152;28;20336;-67
2023/06/29 00:45:26;;;;;;;;;;;;;;;-144.99;93.04;52211.66;5048904;28;19951;-67
2023/06/29 00:47:54;;;;;;;;;;;;;;;-144.99;93.49;52232.03;5043522;28;20310;-67
2023/06/29 00:50:22;;;;;;;;;;;;;;;-144.99;93.60;52232.03;5048348;28;19961;-67
2023/06/29 00:52:48;;;;;;;;;;;;;;;-144.99;93.79;52215.75;5048761;28;20422;-67
2023/06/29 00:55:15;;;;;;;;;;;;;;;-144.99;94.18;52227.97;5053889;28;19941;-67
2023/06/29 00:57:41;;;;;;;;;;;;;;;-144.99;94.51;52260.56;5048202;28;19946;-67
2023/06/29 01:00:10;;;;;;;;;;;;;;;-144.99;96.02;52236.13;5048608;28;20194;-68
2023/06/29 01:02:40;;;;;;;;;;;;;;;-144.99;96.08;52211.66;5048500;28;19946;-69
2023/06/29 01:05:10;;;;;;;;;;;;;;;-144.99;95.19;52193.31;5048307;28;19941;-68
2023/06/29 01:07:38;;;;;;;;;;;;;;;-144.99;94.97;52203.50;5048251;28;19973;-68
2023/06/29 01:10:05;;;;;;;;;;;;;;;-144.99;94.75;52238.16;5048444;28;19953;-68
2023/06/29 01:12:33;;;;;;;;;;;;;;;-144.99;95.11;52217.78;5047427;28;19949;-69
2023/06/29 01:15:00;;;;;;;;;;;;;;;-144.99;95.78;52217.78;5049558;28;19950;-68
2023/06/29 01:17:28;;;;;;;;;;;;;;;-144.99;95.71;52223.88;5049796;28;19948;-68
2023/06/29 01:19:55;;;;;;;;;;;;;;;-144.99;96.21;52211.66;5047879;28;19963;-67
2023/06/29 01:22:26;;;;;;;;;;;;;;;-144.99;96.35;52252.44;5048758;28;19956;-68
2023/06/29 01:24:54;;;;;;;;;;;;;;;-144.99;96.26;52262.63;5042334;28;19954;-68
2023/06/29 01:27:21;;;;;;;;;;;;;;;-144.99;97.10;52252.44;5048182;28;19970;-68
2023/06/29 01:29:55;;;;;;;;;;;;;;;-144.99;98.32;52256.50;5048259;28;19970;-68
2023/06/29 01:32:25;;;;;;;;;;;;;;;-144.99;99.03;52205.53;5048460;28;20058;-68
2023/06/29 01:34:52;;;;;;;;;;;;;;;-144.99;98.30;52230.00;5048478;28;20289;-68
2023/06/29 01:37:19;;;;;;;;;;;;;;;-144.99;97.31;52211.66;5048191;28;19983;-68
2023/06/29 01:39:50;;;;;;;;;;;;;;;-144.99;97.16;52240.19;5048024;28;20201;-68
2023/06/29 01:42:18;;;;;;;;;;;;;;;-144.99;97.04;52236.13;5047100;28;20197;-68
2023/06/29 01:44:45;;;;;;;;;;;;;;;-144.99;97.21;52219.81;5046466;28;19939;-68
2023/06/29 01:47:12;;;;;;;;;;;;;;;-144.99;97.03;52227.97;5047678;28;19960;-68
2023/06/29 01:49:39;;;;;;;;;;;;;;;-144.99;97.36;52248.34;5047437;28;19968;-68
2023/06/29 01:52:07;;;;;;;;;;;;;;;-144.99;98.83;52223.88;5048340;28;19948;-68
2023/06/29 01:54:34;;;;;;;;;;;;;;;-144.99;99.44;52219.81;5048430;28;20319;-68
2023/06/29 01:57:00;;;;;;;;;;;;;;;-144.99;99.93;52240.19;5047528;28;19958;-68
2023/06/29 01:59:28;;;;;;;;;;;;;;;-144.99;100.00;52236.13;5047155;28;19958;-69
2023/06/29 02:01:55;;;;;;;;;;;;;;;-144.99;99.29;52219.81;5046784;28;19939;-69
2023/06/29 02:04:22;;;;;;;;;;;;;;;-144.99;98.11;52223.88;5046996;28;19942;-69
2023/06/29 02:06:48;;;;;;;;;;;;;;;-144.99;97.77;52258.53;5046050;28;19953;-69
2023/06/29 02:09:15;;;;;;;;;;;;;;;-144.99;99.58;52215.75;5046361;28;19940;-68
2023/06/29 02:11:41;;;;;;;;;;;;;;;-144.99;100.00;52260.56;5046069;28;20319;-69
2023/06/29 02:14:08;;;;;;;;;;;;;;;-144.99;100.00;52240.19;5042720;28;20342;-68
2023/06/29 02:16:36;;;;;;;;;;;;;;;-144.99;100.00;52232.03;5046582;28;20458;-69
2023/06/29 02:19:03;;;;;;;;;;;;;;;-144.99;100.00;52223.88;5045971;28;19958;-68
2023/06/29 02:21:30;;;;;;;;;;;;;;;-144.99;100.00;52250.38;5047361;28;19966;-69
2023/06/29 02:23:56;;;;;;;;;;;;;;;-144.99;100.00;52227.97;5046638;28;20420;-68
2023/06/29 02:26:25;;;;;;;;;;;;;;;-144.99;99.69;52221.84;5046398;28;20031;-68
2023/06/29 02:28:52;;;;;;;;;;;;;;;-144.99;99.34;52219.81;5045329;28;19945;-67
2023/06/29 02:31:18;;;;;;;;;;;;;;;-144.99;99.42;52221.84;5046501;28;20003;-68
2023/06/29 02:33:47;;;;;;;;;;;;;;;-144.99;99.29;52244.28;5046690;28;20541;-68
2023/06/29 02:36:15;;;;;;;;;;;;;;;-144.99;98.80;52219.81;5040969;28;20471;-69
2023/06/29 02:38:41;;;;;;;;;;;;;;;-144.99;99.00;52299.31;5045413;28;20430;-68
2023/06/29 02:41:08;;;;;;;;;;;;;;;-144.99;98.98;52209.63;5045818;28;19961;-68
2023/06/29 02:43:35;;;;;;;;;;;;;;;-144.99;98.86;52260.56;5041329;28;20400;-68
2023/06/29 02:46:01;;;;;;;;;;;;;;;-144.99;98.97;52248.34;5046986;28;19939;-69
2023/06/29 02:48:28;;;;;;;;;;;;;;;-144.99;99.29;52246.31;5045865;28;19964;-68
2023/06/29 02:50:56;;;;;;;;;;;;;;;-144.99;99.37;52181.09;5046497;28;19960;-67
2023/06/29 02:53:22;;;;;;;;;;;;;;;-144.99;99.53;52219.81;5046654;28;19942;-68
2023/06/29 02:55:49;;;;;;;;;;;;;;;-144.99;99.48;52236.13;5049731;28;19955;-68
2023/06/29 02:58:16;;;;;;;;;;;;;;;-144.99;99.72;52197.41;5040769;28;20414;-68
2023/06/29 03:00:42;;;;;;;;;;;;;;;-144.99;99.64;52219.81;5045366;28;19966;-68
2023/06/29 03:03:09;;;;;;;;;;;;;;;-144.99;99.58;52248.34;5039124;28;19941;-68
2023/06/29 03:05:35;;;;;;;;;;;;;;;-144.99;99.64;52248.34;5045049;28;20424;-69
2023/06/29 03:08:03;;;;;;;;;;;;;;;-144.99;99.69;52244.28;5044844;28;19973;-69
2023/06/29 03:10:30;;;;;;;;;;;;;;;-144.99;99.97;52266.69;5044507;28;19968;-68
2023/06/29 03:12:56;;;;;;;;;;;;;;;-144.99;99.86;52219.81;5045078;28;19941;-67
2023/06/29 03:15:23;;;;;;;;;;;;;;;-144.99;100.00;52232.03;5044499;28;19940;-66
2023/06/29 03:17:50;;;;;;;;;;;;;;;-144.99;99.88;52207.59;5045799;28;20437;-67
2023/06/29 03:20:16;;;;;;;;;;;;;;;-144.99;100.00;52223.88;5045743;28;19956;-67
2023/06/29 03:22:43;;;;;;;;;;;;;;;-144.99;100.00;52240.19;5046294;28;20396;-67
2023/06/29 03:25:11;;;;;;;;;;;;;;;-144.99;100.00;52268.72;5044913;28;19941;-67
2023/06/29 03:27:38;;;;;;;;;;;;;;;-144.99;100.00;52227.97;5046177;28;19976;-67
2023/06/29 03:30:05;;;;;;;;;;;;;;;-144.99;100.00;52264.66;5041226;28;19952;-68
2023/06/29 03:32:31;;;;;;;;;;;;;;;-144.99;100.00;52250.38;5045440;28;19957;-70
2023/06/29 03:34:58;;;;;;;;;;;;;;;-144.99;100.00;52207.59;5041676;28;20341;-68
2023/06/29 03:37:25;;;;;;;;;;;;;;;-144.99;100.00;52221.84;5046058;28;20560;-67
2023/06/29 03:39:51;;;;;;;;;;;;;;;-144.99;100.00;52221.84;5045945;28;20090;-67
2023/06/29 03:42:19;;;;;;;;;;;;;;;-144.99;100.00;52248.34;5043024;28;19938;-67
2023/06/29 03:44:46;;;;;;;;;;;;;;;-144.99;100.00;52276.88;5037871;28;20040;-67
2023/06/29 03:47:13;;;;;;;;;;;;;;;-144.99;100.00;52232.03;5046428;28;19940;-67
2023/06/29 03:49:39;;;;;;;;;;;;;;;-144.99;100.00;52244.28;5044610;28;19979;-68
2023/06/29 03:52:06;;;;;;;;;;;;;;;-144.99;100.00;52262.63;5045471;28;19942;-68
2023/06/29 03:54:33;;;;;;;;;;;;;;;-144.99;100.00;52213.69;5052417;28;19944;-68
2023/06/29 03:57:01;;;;;;;;;;;;;;;-144.99;100.00;52232.03;5044965;28;20207;-68
2023/06/29 03:59:29;;;;;;;;;;;;;;;-144.99;100.00;52236.13;5043702;28;20914;-68
2023/06/29 04:01:56;;;;;;;;;;;;;;;-144.99;100.00;52207.59;5045306;28;19948;-68
2023/06/29 04:04:22;;;;;;;;;;;;;;;-144.99;100.00;52260.56;5045747;28;19936;-68
2023/06/29 04:06:49;;;;;;;;;;;;;;;-144.99;100.00;52221.84;5045854;28;19965;-67
2023/06/29 04:09:16;;;;;;;;;;;;;;;-144.99;100.00;52266.69;5044371;28;20319;-67
2023/06/29 04:11:43;;;;;;;;;;;;;;;-144.99;100.00;52227.97;5046973;28;19950;-68
2023/06/29 04:14:09;;;;;;;;;;;;;;;-144.99;100.00;52256.50;5037826;28;20276;-67
2023/06/29 04:16:37;;;;;;;;;;;;;;;-144.99;100.00;52244.28;5045993;28;19942;-68
2023/06/29 04:19:04;;;;;;;;;;;;;;;-144.99;100.00;52215.75;5045171;28;19957;-67
2023/06/29 04:21:30;;;;;;;;;;;;;;;-144.99;100.00;52213.69;5045675;28;20310;-68
2023/06/29 04:23:57;;;;;;;;;;;;;;;-144.99;100.00;52240.19;5039724;28;20033;-68
2023/06/29 04:26:27;;;;;;;;;;;;;;;-144.99;100.00;52193.31;5045511;28;19942;-68
2023/06/29 04:29:00;;;;;;;;;;;;;;;-144.99;100.00;52276.88;5039220;28;19941;-68
2023/06/29 04:31:28;;;;;;;;;;;;;;;-144.99;100.00;52252.44;5045690;28;20295;-67
2023/06/29 04:33:57;;;;;;;;;;;;;;;-144.99;100.00;52207.59;5045393;28;19940;-67
2023/06/29 04:36:24;;;;;;;;;;;;;;;-144.99;100.00;52260.56;5045740;28;19949;-68
2023/06/29 04:38:51;;;;;;;;;;;;;;;-144.99;100.00;52276.88;5045659;28;19964;-68
2023/06/29 04:41:18;;;;;;;;;;;;;;;-144.99;100.00;52244.28;5045649;28;19954;-68
2023/06/29 04:43:49;;;;;;;;;;;;;;;-144.99;100.00;52223.88;5042251;28;19943;-68
2023/06/29 04:46:15;;;;;;;;;;;;;;;-144.99;100.00;52221.84;5040636;28;19945;-67
2023/06/29 04:48:46;;;;;;;;;;;;;;;-144.99;100.00;52248.34;5044158;28;19950;-67
2023/06/29 04:51:16;;;;;;;;;;;;;;;-144.99;100.00;52230.00;5045006;28;20314;-68
2023/06/29 04:53:42;;;;;;;;;;;;;;;-144.99;100.00;52238.16;5046190;28;19945;-70
2023/06/29 04:56:09;;;;;;;;;;;;;;;-144.99;100.00;52227.97;5049586;28;20172;-70
2023/06/29 04:58:36;;;;;;;;;;;;;;;-144.99;100.00;52234.09;5046949;28;19950;-68
2023/06/29 05:01:03;;;;;;;;;;;;;;;-144.99;100.00;52227.97;5044500;28;19962;-69
2023/06/29 05:03:29;;;;;;;;;;;;;;;-144.99;100.00;52236.13;5048522;28;20010;-68
2023/06/29 05:05:56;;;;;;;;;;;;;;;-144.99;100.00;52211.66;5040204;28;19937;-67
2023/06/29 05:08:24;;;;;;;;;;;;;;;-144.99;100.00;52199.44;5049423;28;20046;-68
2023/06/29 05:10:51;;;;;;;;;;;;;;;-144.99;100.00;52215.75;5047794;28;20070;-68
2023/06/29 05:13:17;;;;;;;;;;;;;;;-144.99;100.00;52219.81;5042660;28;19989;-69
2023/06/29 05:15:47;;;;;;;;;;;;;;;-144.99;100.00;52195.34;5044059;28;19969;-69
2023/06/29 05:18:14;;;;;;;;;;;;;;;-144.99;100.00;52197.41;5040584;28;19939;-69
2023/06/29 05:20:40;;;;;;;;;;;;;;;-144.99;100.00;52197.41;5047296;28;19984;-68
2023/06/29 05:23:09;;;;;;;;;;;;;;;-144.99;100.00;52252.44;5044209;28;19924;-68
2023/06/29 05:25:37;;;;;;;;;;;;;;;-144.99;100.00;52219.81;5042385;28;20000;-68
2023/06/29 05:28:03;;;;;;;;;;;;;;;-144.99;99.54;52219.81;5047248;28;20271;-68
2023/06/29 05:30:30;;;;;;;;;;;;;;;-144.99;99.14;52236.13;5048964;28;19968;-67
2023/06/29 05:32:56;;;;;;;;;;;;;;;-144.99;99.55;52211.66;5035981;28;20381;-68
2023/06/29 05:35:23;;;;;;;;;;;;;;;-144.99;100.00;52236.13;5046499;28;20174;-67
2023/06/29 05:37:50;;;;;;;;;;;;;;;-144.99;100.00;52232.03;5048573;28;19932;-68
2023/06/29 05:40:16;;;;;;;;;;;;;;;-144.99;100.00;52174.97;5048097;28;19967;-68
2023/06/29 05:42:44;;;;;;;;;;;;;;;-144.99;100.00;52211.66;5047705;28;19950;-68
2023/06/29 05:45:12;;;;;;;;;;;;;;;-144.99;100.00;52221.84;5048953;28;19958;-68
2023/06/29 05:47:38;;;;;;;;;;;;;;;-144.99;100.00;52187.19;5042551;28;20420;-69
2023/06/29 05:50:06;;;;;;;;;;;;;;;-144.99;100.00;52236.13;5047653;28;19962;-69
2023/06/29 05:52:33;;;;;;;;;;;;;;;-144.99;100.00;52248.34;5048526;28;19941;-69
2023/06/29 05:55:00;;;;;;;;;;;;;;;-144.99;100.00;52232.03;5048308;28;19940;-69
2023/06/29 05:57:27;;;;;;;;;;;;;;;-144.99;100.00;52227.97;5047005;28;20386;-68
2023/06/29 05:59:55;;;;;;;;;;;;;;;-144.99;100.00;52205.53;5047699;28;19963;-69
2023/06/29 06:02:22;;;;;;;;;;;;;;;-144.99;100.00;52211.66;5048701;28;19957;-68
2023/06/29 06:04:49;;;;;;;;;;;;;;;-144.99;100.00;52232.03;5048396;28;19979;-68
2023/06/29 06:07:16;;;;;;;;;;;;;;;-144.99;100.00;52223.88;5048604;28;19936;-68
2023/06/29 06:09:42;;;;;;;;;;;;;;;-144.99;100.00;52189.25;5048995;28;20046;-68
2023/06/29 06:12:09;;;;;;;;;;;;;;;-144.99;100.00;52199.44;5048368;28;20340;-68
2023/06/29 06:14:36;;;;;;;;;;;;;;;-144.99;100.00;52227.97;5039820;28;19948;-68
2023/06/29 06:17:04;;;;;;;;;;;;;;;-144.99;100.00;52207.59;5047656;28;19955;-68
2023/06/29 06:19:31;;;;;;;;;;;;;;;-144.99;100.00;52195.34;5046761;28;19963;-68
2023/06/29 06:21:57;;;;;;;;;;;;;;;-144.99;100.00;52244.28;5048469;28;20399;-68
2023/06/29 06:24:24;;;;;;;;;;;;;;;-144.99;99.12;52203.50;5047381;28;19939;-68
2023/06/29 06:26:50;;;;;;;;;;;;;;;-144.99;98.07;52223.88;5047523;28;19948;-68
2023/06/29 06:29:17;;;;;;;;;;;;;;;-144.99;98.00;52191.28;5046778;28;19989;-68
2023/06/29 06:31:44;;;;;;;;;;;;;;;-144.99;97.79;52227.97;5047339;28;20044;-69
2023/06/29 06:34:12;;;;;;;;;;;;;;;-144.99;97.45;52232.03;5046656;28;20457;-68
2023/06/29 06:36:38;;;;;;;;;;;;;;;-144.99;97.11;52191.28;5043955;28;20415;-69
2023/06/29 06:39:05;;;;;;;;;;;;;;;-144.99;98.02;52207.59;5072119;22;19982;-71
2023/06/29 06:41:32;;;;;;;;;;;;;;;-144.99;96.71;52187.19;5046713;28;20010;-71
2023/06/29 06:43:59;;;;;;;;;;;;;;;-144.99;96.19;52193.31;5042048;28;20034;-71
2023/06/29 06:46:25;;;;;;;;;;;;;;;-144.99;96.40;52199.44;5045835;28;19956;-71
2023/06/29 06:48:52;;;;;;;;;;;;;;;-144.99;96.49;52179.06;5051892;28;19948;-72
2023/06/29 06:51:20;;;;;;;;;;;;;;;-144.99;95.81;52187.19;5049095;28;20337;-71
2023/06/29 06:53:47;;;;;;;;;;;;;;;-144.99;95.08;52215.75;5059857;28;20305;-71
2023/06/29 06:56:13;;;;;;;;;;;;;;;-144.99;95.04;52187.19;5054899;28;19941;-71
2023/06/29 06:58:40;;;;;;;;;;;;;;;-144.99;94.76;52191.28;5047597;28;19951;-71
2023/06/29 07:01:07;;;;;;;;;;;;;;;-144.99;94.20;52187.19;5049480;28;19959;-71
2023/06/29 07:03:33;;;;;;;;;;;;;;;-144.99;93.66;52242.22;5059721;28;19940;-71
2023/06/29 07:06:00;;;;;;;;;;;;;;;-144.99;92.78;52195.34;5052653;28;19939;-72
2023/06/29 07:08:28;;;;;;;;;;;;;;;-144.99;92.89;52203.50;5050819;28;19929;-72
2023/06/29 07:10:55;;;;;;;;;;;;;;;-144.99;93.13;52181.09;5041958;28;20005;-72
2023/06/29 07:13:22;;;;;;;;;;;;;;;-144.99;92.29;52183.13;5052190;28;19939;-71
2023/06/29 07:15:48;;;;;;;;;;;;;;;-144.99;91.65;52154.59;5046625;28;20478;-72
2023/06/29 07:18:15;;;;;;;;;;;;;;;-144.99;91.13;52183.13;5042104;28;20431;-72
2023/06/29 07:20:42;;;;;;;;;;;;;;;-144.99;91.74;52187.19;5044538;28;19958;-73
2023/06/29 07:23:10;;;;;;;;;;;;;;;-144.99;91.24;52179.06;5053723;28;19989;-72
2023/06/29 07:25:38;;;;;;;;;;;;;;;-144.99;90.96;52146.44;5041137;28;20058;-71
2023/06/29 07:28:05;;;;;;;;;;;;;;;-144.99;90.69;52187.19;5043542;28;20387;-73
2023/06/29 07:30:34;;;;;;;;;;;;;;;-144.99;90.34;52199.44;5045669;28;20224;-71
2023/06/29 07:33:00;;;;;;;;;;;;;;;-144.99;89.89;52138.28;5042604;28;19937;-71
2023/06/29 07:35:27;;;;;;;;;;;;;;;-144.99;88.95;52126.06;5050885;28;20351;-71
2023/06/29 07:37:54;;;;;;;;;;;;;;;-144.99;88.69;52195.34;5052189;28;19955;-70
2023/06/29 07:40:20;;;;;;;;;;;;;;;-144.99;89.58;52181.09;5048046;28;20440;-72
2023/06/29 07:42:48;;;;;;;;;;;;;;;-144.99;89.54;52174.97;5047777;28;19939;-70
2023/06/29 07:45:15;;;;;;;;;;;;;;;-144.99;89.90;52174.97;5048809;28;19942;-70
2023/06/29 07:47:42;;;;;;;;;;;;;;;-144.99;88.42;52162.75;5049529;28;20401;-71
2023/06/29 07:50:09;;;;;;;;;;;;;;;-144.99;87.57;52166.81;5045135;28;19961;-71
2023/06/29 07:52:36;;;;;;;;;;;;;;;-144.99;88.54;52148.47;5038637;28;19947;-71
2023/06/29 07:55:03;;;;;;;;;;;;;;;-144.99;90.39;52164.78;5059451;28;20034;-71
2023/06/29 07:57:30;;;;;;;;;;;;;;;-144.99;90.27;52187.19;5049363;28;19929;-71
2023/06/29 07:59:58;;;;;;;;;;;;;;;-144.99;89.88;52170.91;5062301;28;19953;-71
2023/06/29 08:02:24;;;;;;;;;;;;;;;-144.99;89.77;52158.66;5051192;28;19948;-71
2023/06/29 08:04:51;;;;;;;;;;;;;;;-144.99;89.94;52183.13;5048331;28;20448;-71
2023/06/29 08:07:17;;;;;;;;;;;;;;;-144.99;88.89;52166.81;5050072;28;19929;-71
2023/06/29 08:09:44;;;;;;;;;;;;;;;-144.99;88.21;52174.97;5053906;28;19962;-71
2023/06/29 08:12:11;;;;;;;;;;;;;;;-144.99;87.86;52164.78;5041701;28;20400;-70
2023/06/29 08:14:38;;;;;;;;;;;;;;;-144.99;86.25;52154.59;5042180;28;19945;-70
2023/06/29 08:17:06;;;;;;;;;;;;;;;-144.99;86.05;52158.66;5040524;28;19942;-71
2023/06/29 08:19:33;;;;;;;;;;;;;;;-144.99;86.58;52170.91;5043902;28;20214;-71
2023/06/29 08:22:00;;;;;;;;;;;;;;;-144.99;86.42;52158.66;5052174;28;20400;-71
2023/06/29 08:24:26;;;;;;;;;;;;;;;-144.99;86.19;52130.13;5050977;28;19940;-71
2023/06/29 08:26:53;;;;;;;;;;;;;;;-144.99;84.70;52105.69;5049912;28;20332;-71
2023/06/29 08:29:20;;;;;;;;;;;;;;;-144.99;82.28;52107.72;5051085;28;19951;-71
2023/06/29 08:31:47;;;;;;;;;;;;;;;-144.99;81.68;52111.78;5057794;28;19944;-71
2023/06/29 08:34:15;;;;;;;;;;;;;;;-144.99;81.14;52134.22;5052361;28;19939;-71
2023/06/29 08:36:41;;;;;;;;;;;;;;;-144.99;79.74;52130.13;5044321;28;19946;-71
2023/06/29 08:39:08;;;;;;;;;;;;;;;-144.99;78.61;52097.53;5058412;28;19955;-71
2023/06/29 08:41:35;;;;;;;;;;;;;;;-144.99;77.86;52064.91;5046747;28;19969;-71
2023/06/29 08:44:04;;;;;;;;;;;;;;;-144.99;77.72;52101.59;5054512;28;19948;-70
2023/06/29 08:46:31;;;;;;;;;;;;;;;-144.99;77.21;52093.44;5054381;28;20023;-71
2023/06/29 08:48:58;;;;;;;;;;;;;;;-144.99;78.20;52069.00;5055733;28;20309;-71
2023/06/29 08:51:28;;;;;;;;;;;;;;;-144.99;77.92;52121.97;5051657;28;19953;-71
2023/06/29 08:53:55;;;;;;;;;;;;;;;-144.99;77.07;52073.06;5055987;28;19947;-71
2023/06/29 08:56:23;;;;;;;;;;;;;;;-144.99;76.92;52073.06;5057841;28;19950;-71
2023/06/29 08:58:50;;;;;;;;;;;;;;;-144.99;77.83;52085.31;5050823;28;20259;-71
2023/06/29 09:01:17;;;;;;;;;;;;;;;-144.99;77.62;52075.09;5054336;28;19976;-71
2023/06/29 09:03:44;;;;;;;;;;;;;;;-144.99;77.25;52095.50;5049837;28;19940;-71
2023/06/29 09:06:11;;;;;;;;;;;;;;;-144.99;76.15;52109.75;5050380;28;19960;-71
2023/06/29 09:08:39;;;;;;;;;;;;;;;-144.99;76.16;52109.75;5058730;28;19964;-71
2023/06/29 09:11:05;;;;;;;;;;;;;;;-144.99;76.38;52085.31;5049857;28;19955;-71
2023/06/29 09:13:34;;;;;;;;;;;;;;;-144.99;76.48;52101.59;5048150;28;20420;-71
2023/06/29 09:16:01;;;;;;;;;;;;;;;-144.99;76.27;52095.50;5052126;28;19952;-72
2023/06/29 09:18:28;;;;;;;;;;;;;;;-144.99;75.84;52111.78;5050057;28;20131;-70
2023/06/29 09:20:55;;;;;;;;;;;;;;;-144.99;75.44;52097.53;5045971;28;19965;-71
2023/06/29 09:23:22;;;;;;;;;;;;;;;-144.99;75.08;52121.97;5055557;28;20042;-71
2023/06/29 09:25:50;;;;;;;;;;;;;;;-144.99;74.82;52093.44;5043180;28;19946;-72
2023/06/29 09:28:18;;;;;;;;;;;;;;;-144.99;74.95;52109.75;5050305;28;19949;-71
2023/06/29 09:30:44;;;;;;;;;;;;;;;-144.99;75.13;52093.44;5049137;28;19959;-71
2023/06/29 09:33:12;;;;;;;;;;;;;;;-144.99;76.00;52060.84;5052428;28;20341;-72
2023/06/29 09:35:39;;;;;;;;;;;;;;;-144.99;75.14;52154.59;5053458;28;20410;-72
2023/06/29 09:38:06;;;;;;;;;;;;;;;-144.99;76.37;52146.44;5053172;28;20009;-72
2023/06/29 09:40:33;;;;;;;;;;;;;;;-144.99;75.90;52119.94;5050701;28;19968;-72
2023/06/29 09:43:05;;;;;;;;;;;;;;;-144.99;75.99;52126.06;5052425;28;19937;-72
2023/06/29 09:45:32;;;;;;;;;;;;;;;-144.99;77.09;52154.59;5051041;28;20334;-72
2023/06/29 09:47:58;;;;;;;;;;;;;;;-144.99;76.47;52126.06;5047887;28;19944;-72
2023/06/29 09:50:25;;;;;;;;;;;;;;;-144.99;76.74;52142.38;5043801;28;19958;-72
2023/06/29 09:52:52;;;;;;;;;;;;;;;-144.99;77.11;52113.84;5048800;28;20027;-73
2023/06/29 09:55:19;;;;;;;;;;;;;;;-144.99;77.94;52146.44;5058829;28;19941;-72
2023/06/29 09:57:46;;;;;;;;;;;;;;;-144.99;78.20;52146.44;5043114;28;19953;-72
2023/06/29 10:00:14;;;;;;;;;;;;;;;-144.99;78.56;52146.44;5052417;28;19960;-73
2023/06/29 10:02:41;;;;;;;;;;;;;;;-144.99;79.12;52170.91;5052880;28;19963;-72
2023/06/29 10:05:08;;;;;;;;;;;;;;;-144.99;79.71;52154.59;5048957;28;19937;-72
2023/06/29 10:07:36;;;;;;;;;;;;;;;-144.99;79.16;52130.13;5043632;28;20006;-72
2023/06/29 10:10:04;;;;;;;;;;;;;;;-144.99;79.72;52142.38;5057696;28;19957;-72
2023/06/29 10:12:31;;;;;;;;;;;;;;;-144.99;79.56;52164.78;5050592;28;20067;-72
2023/06/29 10:15:05;;;;;;;;;;;;;;;-144.99;79.13;52107.72;5052762;28;19946;-71
2023/06/29 10:17:37;;;;;;;;;;;;;;;-144.99;78.90;52113.84;5051241;28;20371;-73
2023/06/29 10:20:06;;;;;;;;;;;;;;;-144.99;79.06;52134.22;5046254;28;20498;-74
2023/06/29 10:22:35;;;;;;;;;;;;;;;-144.99;78.95;52111.78;5061794;28;20018;-72
2023/06/29 10:25:05;;;;;;;;;;;;;;;-144.99;78.89;52179.06;5050840;28;19935;-73
2023/06/29 10:27:34;;;;;;;;;;;;;;;-144.99;79.18;52126.06;5050975;28;19956;-72
2023/06/29 10:30:03;;;;;;;;;;;;;;;-144.99;78.66;52109.75;5047483;28;19990;-72
2023/06/29 10:32:31;;;;;;;;;;;;;;;-144.99;78.73;52109.75;5038673;28;19946;-75
2023/06/29 10:35:03;;;;;;;;;;;;;;;-144.99;77.72;52146.44;5044580;28;20026;-73
2023/06/29 10:37:30;;;;;;;;;;;;;;;-144.99;78.04;52109.75;5039812;28;19945;-72
2023/06/29 10:39:58;;;;;;;;;;;;;;;-144.99;77.67;52121.97;5046870;28;19956;-76
2023/06/29 10:42:43;;;;;;;;;;;;;;;-144.99;78.64;52130.13;5042568;28;19933;-72
2023/06/29 10:45:24;;;;;;;;;;;;;;;-144.99;77.97;52132.19;5041304;28;19940;-72
2023/06/29 10:48:00;;;;;;;;;;;;;;;-144.99;78.17;52105.69;5054125;28;19947;-75
2023/06/29 10:50:30;;;;;;;;;;;;;;;-144.99;77.98;52154.59;5050131;28;19965;-75
2023/06/29 10:52:58;;;;;;;;;;;;;;;-144.99;78.47;52130.13;5035606;28;19944;-74
2023/06/29 10:55:26;;;;;;;;;;;;;;;-144.99;79.09;52156.63;5057906;28;20216;-74
2023/06/29 10:57:55;;;;;;;;;;;;;;;-144.99;80.25;52179.06;5037883;28;19953;-75
2023/06/29 11:00:22;;;;;;;;;;;;;;;-144.99;80.06;52183.13;5045029;28;20124;-74
2023/06/29 11:02:49;;;;;;;;;;;;;;;-144.99;80.85;52152.56;5040773;28;20037;-73
2023/06/29 11:05:16;;;;;;;;;;;;;;;-144.99;80.77;52164.78;5049096;28;19935;-73
2023/06/29 11:07:45;;;;;;;;;;;;;;;-144.99;81.56;52195.34;5046598;28;20417;-73
2023/06/29 11:10:12;;;;;;;;;;;;;;;-144.99;82.56;52199.44;5041597;28;20444;-73
2023/06/29 11:12:39;;;;;;;;;;;;;;;-144.99;82.28;52126.06;5039082;28;19941;-73
2023/06/29 11:15:09;;;;;;;;;;;;;;;-144.99;82.44;52170.91;5041854;28;19949;-74
2023/06/29 11:17:36;;;;;;;;;;;;;;;-144.99;82.90;52166.81;5037952;28;19955;-76
2023/06/29 11:20:03;;;;;;;;;;;;;;;-144.99;83.71;52191.28;5032743;28;19962;-74
2023/06/29 11:22:29;;;;;;;;;;;;;;;-144.99;83.87;52183.13;5051584;28;19955;-73
2023/06/29 11:24:57;;;;;;;;;;;;;;;-144.99;84.39;52170.91;5048956;28;20276;-76
2023/06/29 11:27:24;;;;;;;;;;;;;;;-144.99;84.01;52146.44;5029931;28;20429;-73
2023/06/29 11:29:54;;;;;;;;;;;;;;;-144.99;83.72;52166.81;5046550;28;20358;-74
2023/06/29 11:32:21;;;;;;;;;;;;;;;-144.99;83.36;52174.97;5031508;28;19981;-74
2023/06/29 11:34:47;;;;;;;;;;;;;;;-144.99;83.15;52166.81;5038707;28;19966;-75
2023/06/29 11:37:14;;;;;;;;;;;;;;;-144.99;82.94;52158.66;5044585;28;20010;-74
2023/06/29 11:39:41;;;;;;;;;;;;;;;-144.99;83.32;52142.38;5049308;28;19964;-74
2023/06/29 11:42:09;;;;;;;;;;;;;;;-144.99;83.13;52146.44;5047312;28;19966;-74
2023/06/29 11:44:36;;;;;;;;;;;;;;;-144.99;82.77;52138.28;5044576;28;19967;-74
2023/06/29 11:47:02;;;;;;;;;;;;;;;-144.99;82.76;52170.91;5044485;28;19945;-73
2023/06/29 11:49:29;;;;;;;;;;;;;;;-144.99;82.23;52174.97;5048943;28;20213;-73
2023/06/29 11:51:56;;;;;;;;;;;;;;;-144.99;82.60;52174.97;5044264;28;19949;-73
2023/06/29 11:54:22;;;;;;;;;;;;;;;-144.99;83.19;52134.22;5049797;28;19978;-73
2023/06/29 11:56:49;;;;;;;;;;;;;;;-144.99;84.35;52156.63;5044484;28;20317;-72
2023/06/29 11:59:21;;;;;;;;;;;;;;;-144.99;84.89;52183.13;5044467;28;19984;-72
2023/06/29 12:01:48;;;;;;;;;;;;;;;-144.99;85.10;52172.94;5050117;28;20342;-73
2023/06/29 12:04:15;;;;;;;;;;;;;;;-144.99;85.45;52164.78;5043944;28;19935;-74
2023/06/29 12:06:50;;;;;;;;;;;;;;;-144.99;85.08;52203.50;5046945;28;19989;-73
2023/06/29 12:09:16;;;;;;;;;;;;;;;-144.99;84.71;52177.00;5051333;28;19941;-72
2023/06/29 12:11:43;;;;;;;;;;;;;;;-144.99;85.12;52154.59;5056949;28;20330;-72
2023/06/29 12:14:10;;;;;;;;;;;;;;;-144.99;85.61;52174.97;5044816;28;19925;-72
2023/06/29 12:16:40;;;;;;;;;;;;;;;-144.99;85.66;52183.13;5040631;28;20089;-72
2023/06/29 12:19:13;;;;;;;;;;;;;;;-144.99;86.11;52156.63;5045104;28;19939;-72
2023/06/29 12:21:40;;;;;;;;;;;;;;;-144.99;86.35;52162.75;5045780;28;19963;-71
2023/06/29 12:24:07;;;;;;;;;;;;;;;-144.99;86.53;52170.91;5047467;28;19940;-73